Terminal Aerodrome Forecast
Issued by NWS Lake Charles, LA

Home | Current Version | Previous Version | Text Only | Print | Product List | Glossary On
Versions: 1 2 3 4 5 6 7 8 9 10 11 12 13 14 15
315
FTUS44 KLCH 120744 AAB
TAFARA
TAF AMD
KARA 120744Z 1208/1306 20006KT 4SM BR BKN007
      TEMPO 1208/1210 1/4SM FG OVC002
     FM121000 21004KT 1/2SM FG OVC002
      TEMPO 1211/1215 4SM BR BKN012
     FM121500 24010KT P6SM SCT020
     FM122100 27011KT P6SM SCT250
     FM130200 33006KT P6SM SCT050=

USA.gov is the U.S. government's official web portal to all federal, state and local government web resources and services.